createdAt,value
2018-09-09T00:00:57.695Z,17.50
2018-09-09T00:06:01.493Z,17.50
2018-09-09T00:11:05.255Z,17.50
2018-09-09T00:16:09.270Z,17.50
2018-09-09T00:21:12.967Z,17.40
2018-09-09T00:26:16.866Z,17.50
2018-09-09T00:31:20.787Z,17.40
2018-09-09T00:36:24.643Z,17.40
2018-09-09T00:41:28.664Z,17.40
2018-09-09T00:46:32.832Z,17.40
2018-09-09T00:51:41.982Z,17.50
2018-09-09T00:56:58.808Z,17.50
2018-09-09T01:02:02.882Z,17.40
2018-09-09T01:07:06.686Z,17.50
2018-09-09T01:12:10.561Z,17.50
2018-09-09T01:17:14.427Z,17.60
2018-09-09T01:22:18.512Z,17.70
2018-09-09T01:27:22.338Z,17.80
2018-09-09T01:32:25.926Z,17.80
2018-09-09T01:37:29.676Z,17.90
2018-09-09T01:42:33.920Z,17.90
2018-09-09T01:47:37.955Z,17.90
2018-09-09T01:52:41.927Z,17.90
2018-09-09T01:57:45.751Z,17.90
2018-09-09T02:02:49.464Z,18.00
2018-09-09T02:13:27.685Z,18.00
2018-09-09T02:18:31.480Z,18.10
2018-09-09T02:23:35.298Z,18.10
2018-09-09T02:28:39.215Z,18.10
2018-09-09T02:33:43.077Z,18.10
2018-09-09T02:38:50.407Z,18.10
2018-09-09T02:43:54.147Z,18.10
2018-09-09T02:49:10.607Z,18.10
2018-09-09T02:54:14.652Z,18.00
2018-09-09T02:59:31.432Z,17.90
2018-09-09T03:04:35.482Z,17.80
2018-09-09T03:09:39.188Z,17.70
2018-09-09T03:14:43.116Z,17.70
2018-09-09T03:19:47.100Z,17.60
2018-09-09T03:24:51.299Z,17.60
2018-09-09T03:29:55.122Z,17.60
2018-09-09T03:34:58.748Z,17.50
2018-09-09T03:40:02.996Z,17.50
2018-09-09T03:45:07.004Z,17.50
2018-09-09T03:50:10.848Z,17.50
2018-09-09T03:55:14.729Z,17.50
2018-09-09T04:00:18.362Z,17.40
2018-09-09T04:05:21.946Z,17.40
2018-09-09T04:10:26.074Z,17.30
2018-09-09T04:15:29.988Z,17.40
2018-09-09T04:20:33.731Z,17.40
2018-09-09T04:25:37.684Z,17.40
2018-09-09T04:30:41.655Z,17.30
2018-09-09T04:35:45.305Z,17.30
2018-09-09T04:40:49.200Z,17.30
2018-09-09T04:45:52.831Z,17.30
2018-09-09T04:50:56.551Z,17.30
2018-09-09T04:56:00.179Z,17.20
2018-09-09T05:01:03.900Z,17.20
2018-09-09T05:06:07.600Z,17.20
2018-09-09T05:11:11.573Z,17.20
2018-09-09T05:16:15.299Z,17.20
2018-09-09T05:21:18.925Z,17.20
2018-09-09T05:26:22.689Z,17.20
2018-09-09T05:31:27.056Z,17.20
2018-09-09T05:36:30.841Z,17.10
2018-09-09T05:41:34.514Z,17.10
2018-09-09T05:46:38.459Z,17.10
2018-09-09T05:51:42.119Z,17.20
2018-09-09T05:56:45.659Z,17.20
2018-09-09T06:01:49.887Z,17.20
2018-09-09T06:06:53.822Z,17.20
2018-09-09T06:11:57.627Z,17.30
2018-09-09T06:17:01.430Z,17.30
2018-09-09T06:22:05.248Z,17.40
2018-09-09T06:27:09.435Z,17.40
2018-09-09T06:32:13.173Z,17.40
2018-09-09T06:37:17.559Z,17.40
2018-09-09T06:42:21.900Z,17.50
2018-09-09T06:47:26.411Z,17.50
2018-09-09T06:52:31.442Z,17.60
2018-09-09T06:57:39.692Z,17.80
2018-09-09T07:02:44.203Z,18.00
2018-09-09T07:07:48.726Z,18.10
2018-09-09T07:12:53.740Z,18.20
2018-09-09T07:17:58.426Z,18.30
2018-09-09T07:23:02.594Z,18.50
2018-09-09T07:28:07.990Z,18.60
2018-09-09T07:33:13.009Z,18.70
2018-09-09T07:38:17.257Z,18.80
2018-09-09T07:43:21.575Z,18.90
2018-09-09T07:48:26.417Z,19.00
2018-09-09T07:53:30.814Z,19.10
2018-09-09T07:58:35.198Z,19.20
2018-09-09T08:03:39.721Z,19.30
2018-09-09T08:14:32.053Z,19.50
2018-09-09T08:19:55.345Z,19.50
2018-09-09T08:24:59.705Z,19.60
2018-09-09T08:30:04.037Z,19.70
2018-09-09T08:35:08.448Z,19.80
2018-09-09T08:40:12.491Z,19.90
2018-09-09T08:45:16.829Z,20.00
2018-09-09T08:50:21.099Z,20.10
2018-09-09T08:55:25.311Z,20.10
2018-09-09T09:00:29.544Z,20.20
2018-09-09T09:05:33.841Z,20.20
2018-09-09T09:10:38.547Z,20.30
2018-09-09T09:15:43.099Z,20.30
2018-09-09T09:20:47.301Z,20.30
2018-09-09T09:36:47.806Z,20.30
2018-09-09T09:41:52.105Z,20.40
2018-09-09T09:46:56.912Z,20.50
2018-09-09T09:52:01.451Z,20.60
2018-09-09T09:57:05.238Z,20.80
2018-09-09T10:02:09.103Z,21.00
2018-09-09T10:07:12.936Z,21.10
2018-09-09T10:12:16.665Z,21.20
2018-09-09T10:17:20.589Z,21.20
2018-09-09T10:22:24.431Z,21.20
2018-09-09T10:27:28.734Z,21.30
2018-09-09T10:32:32.408Z,21.40
2018-09-09T10:37:36.008Z,21.50
2018-09-09T10:42:39.684Z,21.60
2018-09-09T10:47:43.716Z,21.80
2018-09-09T10:52:47.732Z,21.90
2018-09-09T10:57:51.388Z,22.00
2018-09-09T11:02:55.007Z,22.00
2018-09-09T11:07:58.817Z,22.10
2018-09-09T11:13:02.774Z,22.20
2018-09-09T11:23:51.861Z,22.40
2018-09-09T11:34:27.915Z,22.70
2018-09-09T11:39:48.187Z,23.00
2018-09-09T11:44:52.014Z,23.20
2018-09-09T11:49:55.731Z,23.30
2018-09-09T11:54:59.545Z,23.30
2018-09-09T12:00:03.661Z,23.40
2018-09-09T12:05:07.398Z,23.50
2018-09-09T12:10:11.236Z,23.60
2018-09-09T12:15:15.452Z,23.70
2018-09-09T12:20:19.304Z,23.70
2018-09-09T12:25:22.981Z,23.80
2018-09-09T12:30:26.949Z,23.80
2018-09-09T12:35:30.622Z,23.80
2018-09-09T12:40:34.652Z,23.90
2018-09-09T12:45:43.674Z,24.00
2018-09-09T12:50:48.054Z,24.10
2018-09-09T12:55:51.781Z,24.20
2018-09-09T13:00:55.939Z,24.40
2018-09-09T13:05:59.584Z,24.40
2018-09-09T13:11:03.211Z,24.50
2018-09-09T13:16:07.055Z,24.60
2018-09-09T13:21:11.035Z,24.80
2018-09-09T13:26:15.049Z,25.00
2018-09-09T13:31:19.126Z,25.10
2018-09-09T13:36:22.772Z,25.20
2018-09-09T13:41:26.700Z,25.30
2018-09-09T13:46:30.489Z,25.30
2018-09-09T13:51:34.199Z,25.20
2018-09-09T13:56:38.038Z,25.20
2018-09-09T14:01:41.817Z,25.30
2018-09-09T14:06:45.446Z,25.30
2018-09-09T14:11:49.053Z,25.20
2018-09-09T14:16:52.896Z,25.10
2018-09-09T14:21:56.724Z,25.00
2018-09-09T14:27:08.657Z,25.00
2018-09-09T14:32:12.436Z,25.00
2018-09-09T14:37:16.688Z,25.00
2018-09-09T14:42:20.396Z,24.90
2018-09-09T14:47:24.259Z,24.90
2018-09-09T14:52:28.080Z,24.80
2018-09-09T14:57:32.133Z,24.70
2018-09-09T15:02:36.729Z,24.60
2018-09-09T15:13:28.420Z,24.50
2018-09-09T15:18:33.112Z,24.50
2018-09-09T15:23:37.546Z,24.60
2018-09-09T15:28:41.807Z,24.70
2018-09-09T15:33:46.334Z,24.80
2018-09-09T15:38:50.711Z,24.90
2018-09-09T15:43:55.350Z,24.90
2018-09-09T15:48:59.658Z,24.90
2018-09-09T15:54:04.014Z,24.80
2018-09-09T16:04:59.714Z,24.90
2018-09-09T16:10:04.885Z,24.90
2018-09-09T16:15:09.056Z,24.80
2018-09-09T16:20:13.249Z,24.70
2018-09-09T16:25:17.830Z,24.60
2018-09-09T16:30:22.116Z,24.60
2018-09-09T16:35:26.320Z,24.50
2018-09-09T16:40:31.158Z,24.50
2018-09-09T16:45:35.415Z,24.40
2018-09-09T16:56:19.791Z,24.20
2018-09-09T17:01:23.930Z,24.10
2018-09-09T17:06:28.080Z,23.90
2018-09-09T17:11:32.565Z,23.80
2018-09-09T17:16:37.014Z,23.60
2018-09-09T17:21:41.103Z,23.40
2018-09-09T17:26:45.704Z,23.30
2018-09-09T17:32:07.160Z,23.10
2018-09-09T17:37:11.476Z,22.90
2018-09-09T17:42:15.924Z,22.70
2018-09-09T17:47:19.997Z,22.50
2018-09-09T17:52:24.549Z,22.30
2018-09-09T17:57:29.473Z,22.20
2018-09-09T18:24:26.186Z,21.30
2018-09-09T18:46:06.386Z,20.70
2018-09-09T18:51:11.135Z,20.50
2018-09-09T18:56:15.469Z,20.40
2018-09-09T19:01:20.029Z,20.30
2018-09-09T19:06:24.487Z,20.20
2018-09-09T19:11:29.142Z,20.00
2018-09-09T19:16:32.996Z,19.90
2018-09-09T19:21:51.240Z,19.80
2018-09-09T19:26:55.258Z,19.70
2018-09-09T19:31:58.867Z,19.60
2018-09-09T19:37:02.869Z,19.60
2018-09-09T19:42:07.024Z,19.50
2018-09-09T19:52:38.977Z,19.30
2018-09-09T19:57:42.702Z,19.20
2018-09-09T20:02:46.407Z,19.10
2018-09-09T20:07:54.999Z,19.00
2018-09-09T20:12:58.820Z,18.90
2018-09-09T20:18:03.967Z,18.90
2018-09-09T20:23:07.693Z,18.80
2018-09-09T20:28:11.440Z,18.80
2018-09-09T20:33:15.584Z,18.80
2018-09-09T20:38:21.320Z,18.70
2018-09-09T20:43:25.384Z,18.70
2018-09-09T20:48:29.654Z,18.70
2018-09-09T20:53:33.536Z,18.70
2018-09-09T20:58:39.776Z,18.70
2018-09-09T21:03:43.573Z,18.70
2018-09-09T21:08:47.230Z,18.70
2018-09-09T21:13:51.051Z,18.70
2018-09-09T21:18:58.000Z,18.70
2018-09-09T21:24:02.104Z,18.70
2018-09-09T21:29:06.424Z,18.80
2018-09-09T21:34:10.122Z,18.90
2018-09-09T21:39:17.595Z,18.90
2018-09-09T21:44:21.343Z,18.90
2018-09-09T21:49:25.116Z,18.90
2018-09-09T21:54:28.955Z,18.80
2018-09-09T22:05:02.824Z,18.90
2018-09-09T22:10:06.725Z,18.90
2018-09-09T22:15:10.467Z,18.90
2018-09-09T22:20:14.649Z,19.00
2018-09-09T22:25:18.289Z,19.10
2018-09-09T22:30:21.868Z,19.00
2018-09-09T22:35:25.581Z,19.00
2018-09-09T22:40:29.360Z,19.00
2018-09-09T22:45:33.416Z,19.10
2018-09-09T22:50:37.145Z,19.20
2018-09-09T22:55:40.828Z,19.30
2018-09-09T23:00:44.624Z,19.40
2018-09-09T23:05:48.345Z,19.40
2018-09-09T23:10:52.144Z,19.50
2018-09-09T23:15:56.701Z,19.50
2018-09-09T23:21:00.507Z,19.50
2018-09-09T23:26:04.276Z,19.60
2018-09-09T23:31:08.120Z,19.60
2018-09-09T23:36:11.706Z,19.60
2018-09-09T23:41:15.284Z,19.60
2018-09-09T23:46:22.860Z,19.60
2018-09-09T23:51:26.752Z,19.50
2018-09-09T23:56:30.354Z,19.40
